createdAt,value
2023-05-03T00:01:00.218Z,2.80
2023-05-03T00:03:27.830Z,3.20
2023-05-03T00:05:54.512Z,2.40
2023-05-03T00:08:21.814Z,2.50
2023-05-03T00:10:48.414Z,2.60
2023-05-03T00:13:15.048Z,2.77
2023-05-03T00:15:41.680Z,2.47
2023-05-03T00:18:08.753Z,2.60
2023-05-03T00:20:35.544Z,2.77
2023-05-03T00:23:02.181Z,2.57
2023-05-03T00:25:28.854Z,2.70
2023-05-03T00:27:55.570Z,2.63
2023-05-03T00:30:22.276Z,2.47
2023-05-03T00:32:49.142Z,2.47
2023-05-03T00:35:15.747Z,2.47
2023-05-03T00:37:42.371Z,2.50
2023-05-03T00:40:09.969Z,2.17
2023-05-03T00:42:37.080Z,2.60
2023-05-03T00:45:06.010Z,2.27
2023-05-03T00:47:33.239Z,2.20
2023-05-03T00:50:00.928Z,2.20
2023-05-03T00:52:28.342Z,2.67
2023-05-03T00:54:56.855Z,2.57
2023-05-03T00:57:25.321Z,3.37
2023-05-03T00:59:53.416Z,2.97
2023-05-03T01:02:20.074Z,2.93
2023-05-03T01:04:46.718Z,3.37
2023-05-03T01:07:39.831Z,3.50
2023-05-03T01:10:09.528Z,2.67
2023-05-03T01:13:13.691Z,2.73
2023-05-03T01:16:00.906Z,2.83
2023-05-03T01:18:34.507Z,3.03
2023-05-03T01:21:02.591Z,3.37
2023-05-03T01:23:42.285Z,2.87
2023-05-03T01:26:17.973Z,3.80
2023-05-03T01:28:44.630Z,2.90
2023-05-03T01:31:13.147Z,3.00
2023-05-03T01:34:21.608Z,2.77
2023-05-03T01:36:49.582Z,2.57
2023-05-03T01:39:25.904Z,2.53
2023-05-03T01:41:53.392Z,2.80
2023-05-03T01:44:22.680Z,2.77
2023-05-03T01:46:49.780Z,2.87
2023-05-03T01:49:16.487Z,2.80
2023-05-03T01:51:43.091Z,2.83
2023-05-03T01:54:09.887Z,2.57
2023-05-03T01:56:37.186Z,2.63
2023-05-03T01:59:04.389Z,2.30
2023-05-03T02:01:31.149Z,2.60
2023-05-03T02:03:58.030Z,2.70
2023-05-03T02:06:26.106Z,2.33
2023-05-03T02:08:53.481Z,2.63
2023-05-03T02:11:21.443Z,2.80
2023-05-03T02:13:51.163Z,2.77
2023-05-03T02:16:18.445Z,2.30
2023-05-03T02:18:45.272Z,2.30
2023-05-03T02:21:13.095Z,2.30
2023-05-03T02:23:39.739Z,2.57
2023-05-03T02:26:07.571Z,2.50
2023-05-03T02:28:34.507Z,2.67
2023-05-03T02:31:01.248Z,2.50
2023-05-03T02:33:28.112Z,2.27
2023-05-03T02:35:54.727Z,2.27
2023-05-03T02:38:21.333Z,2.50
2023-05-03T02:40:47.998Z,2.57
2023-05-03T02:43:14.736Z,2.40
2023-05-03T02:45:43.628Z,2.60
2023-05-03T02:48:11.051Z,2.27
2023-05-03T02:50:38.562Z,2.80
2023-05-03T02:53:05.606Z,2.90
2023-05-03T02:55:32.640Z,3.07
2023-05-03T02:57:59.320Z,2.50
2023-05-03T03:00:26.060Z,2.87
2023-05-03T03:02:52.774Z,2.83
2023-05-03T03:05:19.541Z,2.70
2023-05-03T03:07:46.145Z,3.27
2023-05-03T03:10:13.100Z,2.60
2023-05-03T03:12:39.786Z,2.80
2023-05-03T03:15:07.079Z,2.83
2023-05-03T03:17:33.726Z,2.90
2023-05-03T03:20:02.251Z,2.83
2023-05-03T03:22:29.155Z,2.70
2023-05-03T03:24:55.764Z,2.87
2023-05-03T03:27:23.986Z,2.60
2023-05-03T03:29:50.809Z,3.10
2023-05-03T03:32:17.499Z,3.03
2023-05-03T03:34:44.109Z,2.90
2023-05-03T03:37:11.162Z,2.93
2023-05-03T03:39:40.016Z,2.97
2023-05-03T03:42:07.892Z,2.90
2023-05-03T03:44:34.633Z,2.93
2023-05-03T03:47:01.303Z,2.77
2023-05-03T03:49:27.974Z,3.20
2023-05-03T03:51:54.581Z,2.83
2023-05-03T03:54:22.192Z,2.87
2023-05-03T03:56:48.889Z,3.47
2023-05-03T03:59:15.551Z,3.37
2023-05-03T04:01:42.182Z,3.20
2023-05-03T04:04:08.891Z,3.60
2023-05-03T04:06:35.591Z,2.60
2023-05-03T04:09:02.284Z,3.23
2023-05-03T04:11:28.863Z,3.20
2023-05-03T04:13:55.445Z,2.70
2023-05-03T04:16:22.188Z,3.07
2023-05-03T04:18:48.781Z,2.60
2023-05-03T04:21:15.430Z,2.67
2023-05-03T04:23:42.547Z,3.00
2023-05-03T04:26:14.596Z,2.90
2023-05-03T04:28:51.941Z,2.87
2023-05-03T04:31:22.068Z,2.67
2023-05-03T04:33:48.756Z,2.77
2023-05-03T04:36:15.964Z,2.92
2023-05-03T04:38:45.890Z,2.73
2023-05-03T04:41:14.121Z,2.80
2023-05-03T04:43:43.072Z,2.95
2023-05-03T04:46:10.029Z,2.83
2023-05-03T04:48:37.317Z,2.70
2023-05-03T04:51:04.417Z,2.67
2023-05-03T04:53:31.137Z,2.63
2023-05-03T04:55:57.742Z,2.42
2023-05-03T04:58:24.697Z,2.60
2023-05-03T05:00:51.417Z,2.60
2023-05-03T05:03:18.177Z,2.50
2023-05-03T05:05:44.854Z,2.20
2023-05-03T05:08:11.991Z,3.03
2023-05-03T05:10:45.646Z,2.50
2023-05-03T05:13:12.367Z,2.50
2023-05-03T05:15:39.104Z,2.35
2023-05-03T05:18:05.965Z,2.28
2023-05-03T05:20:32.732Z,2.03
2023-05-03T05:22:59.286Z,3.28
2023-05-03T05:25:26.031Z,2.35
2023-05-03T05:27:52.736Z,2.13
2023-05-03T05:30:19.472Z,2.08
2023-05-03T05:32:46.532Z,2.40
2023-05-03T05:35:13.315Z,2.05
2023-05-03T05:37:39.973Z,2.15
2023-05-03T05:40:07.805Z,1.90
2023-05-03T05:42:34.457Z,2.20
2023-05-03T05:45:01.199Z,2.15
2023-05-03T05:47:27.937Z,2.00
2023-05-03T05:49:54.753Z,2.05
2023-05-03T05:52:21.987Z,2.03
2023-05-03T05:54:48.743Z,1.65
2023-05-03T05:57:15.764Z,1.60
2023-05-03T05:59:42.504Z,2.00
2023-05-03T06:02:18.830Z,1.83
2023-05-03T06:04:46.747Z,2.13
2023-05-03T06:07:14.536Z,1.80
2023-05-03T06:09:41.481Z,1.90
2023-05-03T06:12:08.657Z,1.52
2023-05-03T06:14:35.476Z,1.60
2023-05-03T06:17:02.216Z,1.90
2023-05-03T06:19:29.184Z,1.83
2023-05-03T06:21:55.891Z,1.73
2023-05-03T06:24:22.491Z,1.90
2023-05-03T06:26:49.526Z,1.80
2023-05-03T06:29:16.389Z,2.00
2023-05-03T06:31:43.188Z,1.67
2023-05-03T06:34:10.467Z,1.95
2023-05-03T06:36:37.862Z,1.40
2023-05-03T06:39:04.794Z,1.10
2023-05-03T06:41:33.852Z,1.05
2023-05-03T06:44:00.500Z,1.30
2023-05-03T06:46:28.358Z,0.93
2023-05-03T06:48:58.456Z,0.93
2023-05-03T06:51:30.097Z,0.93
2023-05-03T06:54:00.380Z,1.08
2023-05-03T06:56:27.425Z,1.15
2023-05-03T06:58:54.159Z,0.88
2023-05-03T07:01:20.897Z,0.85
2023-05-03T07:03:47.664Z,0.90
2023-05-03T07:06:15.339Z,1.40
2023-05-03T07:08:42.087Z,1.30
2023-05-03T07:11:10.028Z,0.93
2023-05-03T07:13:36.687Z,0.98
2023-05-03T07:16:03.871Z,0.70
2023-05-03T07:18:30.629Z,1.00
2023-05-03T07:20:57.298Z,0.70
2023-05-03T07:23:23.983Z,0.85
2023-05-03T07:25:50.693Z,0.75
2023-05-03T07:28:17.328Z,0.88
2023-05-03T07:30:44.028Z,0.60
2023-05-03T07:33:10.985Z,0.70
2023-05-03T07:35:37.750Z,0.90
2023-05-03T07:38:04.322Z,0.70
2023-05-03T07:40:33.153Z,0.70
2023-05-03T07:43:00.498Z,0.93
2023-05-03T07:45:27.350Z,0.80
2023-05-03T07:47:55.450Z,0.80
2023-05-03T07:50:22.503Z,0.73
2023-05-03T07:52:51.738Z,0.65
2023-05-03T07:55:19.865Z,0.80
2023-05-03T07:57:46.678Z,0.50
2023-05-03T08:00:14.270Z,0.50
2023-05-03T08:02:41.283Z,0.68
2023-05-03T08:05:08.602Z,0.70
2023-05-03T08:07:35.311Z,1.00
2023-05-03T08:10:02.637Z,0.70
2023-05-03T08:12:29.530Z,0.70
2023-05-03T08:14:56.383Z,0.80
2023-05-03T08:17:23.910Z,0.88
2023-05-03T08:19:50.624Z,0.75
2023-05-03T08:22:17.227Z,0.80
2023-05-03T08:24:44.056Z,0.77
2023-05-03T08:27:12.563Z,0.70
2023-05-03T08:29:39.178Z,0.80
2023-05-03T08:32:05.950Z,0.80
2023-05-03T08:34:33.173Z,0.60
2023-05-03T08:36:59.961Z,0.70
2023-05-03T08:39:26.828Z,0.77
2023-05-03T08:41:54.733Z,0.95
2023-05-03T08:44:25.829Z,0.68
2023-05-03T08:46:52.890Z,0.93
2023-05-03T08:49:19.712Z,1.00
2023-05-03T08:51:48.243Z,0.90
2023-05-03T08:54:20.565Z,0.52
2023-05-03T08:56:47.554Z,0.90
2023-05-03T08:59:16.488Z,0.80
2023-05-03T09:01:43.598Z,1.00
2023-05-03T09:04:11.522Z,0.95
2023-05-03T09:06:39.117Z,0.65
2023-05-03T09:09:08.068Z,0.70
2023-05-03T09:11:37.207Z,0.55
2023-05-03T09:14:15.142Z,0.73
2023-05-03T09:16:44.385Z,0.77
2023-05-03T09:19:12.654Z,1.00
2023-05-03T09:21:40.619Z,0.80
2023-05-03T09:24:21.561Z,0.65
2023-05-03T09:26:51.119Z,0.60
2023-05-03T09:29:37.136Z,0.80
2023-05-03T09:32:12.590Z,1.02
2023-05-03T09:34:39.215Z,0.70
2023-05-03T09:37:06.520Z,0.75
2023-05-03T09:39:33.410Z,0.82
2023-05-03T09:42:14.473Z,0.60
2023-05-03T09:44:53.767Z,0.70
2023-05-03T09:47:21.650Z,0.80
2023-05-03T09:49:48.250Z,0.80
2023-05-03T09:52:14.820Z,0.82
2023-05-03T09:54:43.117Z,0.80
2023-05-03T09:57:09.982Z,0.98
2023-05-03T09:59:38.333Z,0.73
2023-05-03T10:02:07.370Z,0.90
2023-05-03T10:05:01.501Z,0.90
2023-05-03T10:07:28.753Z,0.90
2023-05-03T10:09:57.096Z,0.70
2023-05-03T10:12:24.826Z,0.63
2023-05-03T10:14:54.336Z,0.70
2023-05-03T10:17:42.914Z,0.65
2023-05-03T10:20:24.718Z,0.80
2023-05-03T10:23:07.603Z,0.60
2023-05-03T10:25:36.400Z,0.80
2023-05-03T10:28:08.207Z,0.73
2023-05-03T10:30:37.166Z,0.63
2023-05-03T10:33:30.007Z,0.90
2023-05-03T10:35:57.632Z,0.70
2023-05-03T10:38:26.078Z,0.80
2023-05-03T10:40:54.857Z,0.73
2023-05-03T10:43:33.224Z,0.60
2023-05-03T10:46:01.712Z,0.70
2023-05-03T10:48:29.413Z,0.57
2023-05-03T10:50:56.900Z,0.63
2023-05-03T10:53:43.357Z,0.80
2023-05-03T10:56:15.569Z,0.63
2023-05-03T10:58:50.596Z,0.70
2023-05-03T11:01:18.960Z,0.70
2023-05-03T11:04:01.204Z,0.63
2023-05-03T11:06:32.496Z,0.52
2023-05-03T11:09:00.185Z,0.80
2023-05-03T11:11:27.308Z,0.88
2023-05-03T11:13:54.242Z,0.75
2023-05-03T11:16:21.057Z,0.70
2023-05-03T11:18:48.904Z,0.70
2023-05-03T11:21:16.486Z,0.82
2023-05-03T11:23:44.169Z,0.60
2023-05-03T11:26:12.380Z,1.00
2023-05-03T11:28:39.968Z,0.70
2023-05-03T11:31:07.619Z,0.70
2023-05-03T11:33:35.321Z,0.98
2023-05-03T11:36:09.463Z,1.17
2023-05-03T11:38:37.829Z,1.10
2023-05-03T11:41:16.334Z,0.80
2023-05-03T11:43:49.479Z,0.70
2023-05-03T11:46:23.110Z,0.65
2023-05-03T11:48:49.875Z,0.73
2023-05-03T11:51:25.382Z,0.63
2023-05-03T11:53:52.252Z,1.02
2023-05-03T11:56:20.569Z,1.00
2023-05-03T11:58:51.187Z,0.95
2023-05-03T12:01:19.051Z,0.90
2023-05-03T12:03:49.274Z,1.00
2023-05-03T12:06:18.013Z,0.90
2023-05-03T12:08:45.440Z,1.20
2023-05-03T12:11:13.642Z,1.10
2023-05-03T12:13:41.641Z,1.00
2023-05-03T12:16:14.402Z,1.23
2023-05-03T12:18:58.660Z,1.15
2023-05-03T12:21:59.237Z,1.10
2023-05-03T12:24:34.252Z,1.10
2023-05-03T12:27:02.958Z,1.13
2023-05-03T12:29:34.167Z,1.30
2023-05-03T12:32:03.229Z,1.25
2023-05-03T12:34:34.600Z,1.38
2023-05-03T12:37:04.997Z,1.00
2023-05-03T12:39:33.397Z,1.20
2023-05-03T12:44:35.129Z,1.30
2023-05-03T12:47:02.713Z,1.27
2023-05-03T12:49:29.987Z,1.30
2023-05-03T12:52:18.646Z,1.50
2023-05-03T12:54:49.175Z,1.17
2023-05-03T12:57:32.412Z,1.23
2023-05-03T13:00:04.615Z,1.30
2023-05-03T13:05:11.829Z,1.50
2023-05-03T13:07:55.578Z,1.40
2023-05-03T13:10:24.530Z,1.27
2023-05-03T13:12:51.322Z,1.30
2023-05-03T13:15:17.968Z,1.60
2023-05-03T13:17:46.784Z,1.38
2023-05-03T13:20:14.305Z,1.48
2023-05-03T13:22:41.037Z,1.40
2023-05-03T13:25:08.209Z,1.60
2023-05-03T13:27:34.797Z,1.50
2023-05-03T13:30:02.565Z,1.25
2023-05-03T13:32:29.664Z,1.30
2023-05-03T13:34:56.394Z,1.33
2023-05-03T13:37:23.518Z,1.10
2023-05-03T13:39:50.077Z,1.50
2023-05-03T13:42:16.758Z,1.40
2023-05-03T13:44:46.447Z,1.30
2023-05-03T13:47:13.423Z,1.63
2023-05-03T13:49:40.002Z,1.30
2023-05-03T13:52:06.776Z,1.38
2023-05-03T13:54:33.337Z,1.40
2023-05-03T13:56:59.921Z,1.70
2023-05-03T13:59:26.460Z,1.55
2023-05-03T14:01:53.089Z,1.70
2023-05-03T14:04:19.860Z,1.80
2023-05-03T14:06:46.739Z,1.48
2023-05-03T14:09:13.856Z,1.67
2023-05-03T14:11:41.217Z,1.90
2023-05-03T14:14:07.975Z,1.70
2023-05-03T14:19:04.145Z,1.23
2023-05-03T14:21:31.717Z,1.52
2023-05-03T14:23:58.421Z,1.70
2023-05-03T14:26:25.979Z,1.70
2023-05-03T14:28:52.689Z,1.40
2023-05-03T14:31:19.294Z,1.42
2023-05-03T14:33:46.117Z,1.65
2023-05-03T14:36:13.248Z,1.73
2023-05-03T14:38:39.847Z,1.58
2023-05-03T14:41:06.403Z,1.50
2023-05-03T14:43:33.064Z,1.42
2023-05-03T14:45:59.962Z,1.30
2023-05-03T14:48:26.802Z,1.55
2023-05-03T14:50:54.290Z,1.40
2023-05-03T14:53:22.400Z,1.42
2023-05-03T14:55:49.853Z,1.40
2023-05-03T14:58:16.550Z,1.52
2023-05-03T15:00:43.463Z,1.80
2023-05-03T15:03:11.848Z,1.67
2023-05-03T15:05:46.496Z,1.50
2023-05-03T15:08:15.136Z,1.23
2023-05-03T15:10:45.681Z,1.75
2023-05-03T15:13:13.238Z,1.27
2023-05-03T15:15:40.942Z,1.08
2023-05-03T15:18:08.719Z,2.00
2023-05-03T15:20:35.956Z,2.13
2023-05-03T15:23:04.632Z,1.45
2023-05-03T15:25:31.702Z,1.38
2023-05-03T15:28:00.022Z,1.92
2023-05-03T15:30:28.836Z,1.50
2023-05-03T15:32:55.434Z,1.80
2023-05-03T15:35:22.057Z,1.42
2023-05-03T15:37:48.637Z,1.40
2023-05-03T15:40:15.378Z,1.33
2023-05-03T15:42:41.933Z,1.40
2023-05-03T15:45:10.474Z,1.35
2023-05-03T15:47:37.125Z,1.40
2023-05-03T15:50:06.374Z,1.48
2023-05-03T15:52:34.715Z,1.52
2023-05-03T15:55:01.370Z,1.65
2023-05-03T15:57:29.661Z,1.60
2023-05-03T15:59:57.051Z,1.52
2023-05-03T16:02:23.931Z,1.27
2023-05-03T16:04:50.730Z,1.60
2023-05-03T16:07:17.693Z,1.45
2023-05-03T16:09:44.432Z,2.22
2023-05-03T16:12:11.048Z,1.77
2023-05-03T16:14:37.706Z,1.67
2023-05-03T16:17:04.348Z,1.83
2023-05-03T16:19:31.870Z,1.60
2023-05-03T16:21:58.803Z,1.75
2023-05-03T16:24:25.762Z,1.77
2023-05-03T16:26:52.691Z,1.90
2023-05-03T16:29:19.651Z,2.17
2023-05-03T16:31:46.892Z,2.00
2023-05-03T16:34:13.986Z,1.73
2023-05-03T16:36:42.874Z,1.88
2023-05-03T16:39:11.234Z,1.70
2023-05-03T16:41:38.202Z,1.92
2023-05-03T16:44:06.073Z,1.80
2023-05-03T16:46:36.227Z,1.80
2023-05-03T16:49:03.599Z,1.70
2023-05-03T16:51:31.481Z,1.83
2023-05-03T16:53:58.978Z,1.90
2023-05-03T16:56:26.351Z,1.98
2023-05-03T16:58:53.488Z,1.83
2023-05-03T17:01:20.607Z,2.08
2023-05-03T17:03:47.352Z,1.90
2023-05-03T17:06:16.052Z,1.98
2023-05-03T17:08:42.810Z,1.85
2023-05-03T17:11:11.017Z,2.10
2023-05-03T17:13:37.666Z,2.30
2023-05-03T17:16:08.459Z,2.17
2023-05-03T17:18:36.041Z,1.92
2023-05-03T17:21:04.555Z,2.05
2023-05-03T17:23:36.022Z,2.05
2023-05-03T17:26:04.332Z,2.10
2023-05-03T17:28:32.504Z,2.00
2023-05-03T17:30:59.809Z,2.30
2023-05-03T17:33:27.026Z,2.45
2023-05-03T17:35:54.401Z,2.53
2023-05-03T17:38:22.548Z,2.30
2023-05-03T17:40:49.155Z,2.30
2023-05-03T17:43:18.512Z,2.33
2023-05-03T17:45:47.359Z,2.03
2023-05-03T17:48:14.507Z,2.38
2023-05-03T17:50:41.924Z,2.30
2023-05-03T17:53:09.363Z,2.42
2023-05-03T17:55:37.930Z,2.22
2023-05-03T17:58:06.225Z,2.40
2023-05-03T18:00:33.628Z,2.20
2023-05-03T18:03:14.807Z,2.50
2023-05-03T18:05:42.002Z,2.88
2023-05-03T18:08:08.601Z,2.95
2023-05-03T18:10:35.868Z,2.80
2023-05-03T18:13:04.433Z,2.67
2023-05-03T18:15:31.453Z,2.60
2023-05-03T18:17:58.044Z,2.67
2023-05-03T18:20:24.769Z,2.40
2023-05-03T18:22:51.308Z,2.88
2023-05-03T18:25:18.077Z,2.47
2023-05-03T18:27:44.605Z,2.45
2023-05-03T18:30:11.982Z,2.88
2023-05-03T18:32:38.604Z,2.97
2023-05-03T18:35:05.998Z,2.00
2023-05-03T18:37:32.601Z,2.30
2023-05-03T18:39:59.337Z,2.47
2023-05-03T18:42:26.293Z,3.92
2023-05-03T18:44:52.863Z,2.45
2023-05-03T18:47:32.553Z,2.70
2023-05-03T18:49:59.138Z,2.83
2023-05-03T18:52:26.175Z,2.63
2023-05-03T18:54:52.866Z,2.85
2023-05-03T18:57:20.002Z,2.17
2023-05-03T18:59:59.591Z,2.50
2023-05-03T19:02:30.448Z,2.88
2023-05-03T19:04:57.564Z,2.08
2023-05-03T19:07:24.324Z,2.10
2023-05-03T19:09:56.001Z,2.40
2023-05-03T19:12:22.927Z,2.05
2023-05-03T19:14:49.925Z,2.15
2023-05-03T19:17:16.797Z,1.90
2023-05-03T19:19:43.490Z,2.38
2023-05-03T19:22:10.290Z,2.60
2023-05-03T19:24:36.972Z,3.10
2023-05-03T19:27:04.578Z,2.38
2023-05-03T19:29:31.492Z,2.30
2023-05-03T19:31:58.080Z,2.28
2023-05-03T19:34:24.677Z,2.10
2023-05-03T19:36:51.244Z,2.40
2023-05-03T19:39:17.957Z,2.53
2023-05-03T19:41:44.541Z,2.47
2023-05-03T19:44:11.594Z,2.58
2023-05-03T19:46:38.440Z,2.90
2023-05-03T19:49:05.507Z,2.40
2023-05-03T19:51:33.037Z,3.10
2023-05-03T19:54:03.013Z,2.60
2023-05-03T19:56:29.624Z,3.33
2023-05-03T19:58:56.355Z,2.50
2023-05-03T20:01:23.604Z,2.85
2023-05-03T20:03:53.217Z,2.80
2023-05-03T20:06:20.274Z,3.20
2023-05-03T20:08:46.878Z,3.03
2023-05-03T20:11:13.552Z,3.15
2023-05-03T20:13:40.136Z,2.95
2023-05-03T20:16:08.075Z,3.20
2023-05-03T20:18:34.720Z,2.90
2023-05-03T20:21:02.020Z,2.95
2023-05-03T20:23:28.626Z,3.33
2023-05-03T20:25:55.448Z,3.20
2023-05-03T20:28:22.066Z,2.90
2023-05-03T20:30:48.738Z,3.83
2023-05-03T20:33:15.567Z,3.53
2023-05-03T20:35:42.596Z,3.47
2023-05-03T20:38:09.305Z,3.92
2023-05-03T20:40:36.248Z,3.50
2023-05-03T20:43:02.809Z,3.67
2023-05-03T20:45:30.109Z,3.63
2023-05-03T20:47:56.834Z,3.63
2023-05-03T20:50:23.610Z,4.30
2023-05-03T20:52:50.224Z,4.07
2023-05-03T20:55:16.896Z,4.10
2023-05-03T20:57:43.666Z,4.13
2023-05-03T21:00:15.873Z,4.27
2023-05-03T21:02:43.472Z,4.43
2023-05-03T21:05:11.251Z,5.00
2023-05-03T21:07:38.410Z,5.57
2023-05-03T21:10:06.773Z,4.43
2023-05-03T21:12:33.707Z,5.40
2023-05-03T21:15:00.683Z,4.93
2023-05-03T21:17:27.451Z,4.80
2023-05-03T21:19:53.999Z,4.67
2023-05-03T21:22:21.075Z,5.20
2023-05-03T21:24:47.869Z,5.40
2023-05-03T21:27:14.434Z,5.60
2023-05-03T21:29:41.008Z,5.47
2023-05-03T21:32:07.642Z,5.10
2023-05-03T21:34:34.252Z,5.83
2023-05-03T21:37:01.078Z,5.07
2023-05-03T21:39:27.684Z,4.93
2023-05-03T21:41:55.534Z,4.10
2023-05-03T21:44:22.926Z,5.70
2023-05-03T21:46:49.789Z,4.47
2023-05-03T21:49:17.269Z,4.43
2023-05-03T21:51:45.207Z,5.33
2023-05-03T21:54:12.456Z,4.50
2023-05-03T21:56:39.944Z,4.60
2023-05-03T21:59:06.650Z,4.60
2023-05-03T22:01:33.508Z,4.73
2023-05-03T22:04:01.761Z,4.53
2023-05-03T22:06:29.208Z,4.80
2023-05-03T22:08:56.425Z,5.07
2023-05-03T22:11:23.462Z,4.83
2023-05-03T22:14:06.124Z,5.37
2023-05-03T22:16:35.943Z,5.47
2023-05-03T22:19:03.206Z,4.87
2023-05-03T22:21:30.028Z,5.47
2023-05-03T22:23:57.455Z,5.47
2023-05-03T22:26:25.161Z,4.83
2023-05-03T22:28:52.259Z,5.47
2023-05-03T22:31:19.356Z,5.40
2023-05-03T22:33:47.747Z,5.50
2023-05-03T22:36:15.801Z,5.30
2023-05-03T22:38:43.188Z,5.23
2023-05-03T22:41:11.341Z,5.47
2023-05-03T22:43:38.569Z,5.73
2023-05-03T22:46:06.618Z,6.37
2023-05-03T22:48:34.712Z,5.43
2023-05-03T22:51:01.720Z,5.20
2023-05-03T22:53:29.439Z,6.10
2023-05-03T22:56:02.075Z,6.23
2023-05-03T22:58:29.608Z,5.77
2023-05-03T23:00:57.473Z,6.10
2023-05-03T23:03:25.532Z,6.70
2023-05-03T23:05:53.407Z,6.43
2023-05-03T23:08:21.642Z,6.00
2023-05-03T23:10:48.850Z,6.23
2023-05-03T23:13:15.705Z,7.13
2023-05-03T23:15:43.399Z,6.67
2023-05-03T23:18:10.272Z,6.67
2023-05-03T23:20:38.601Z,7.33
2023-05-03T23:23:06.158Z,5.83
2023-05-03T23:25:33.708Z,6.40
2023-05-03T23:28:01.443Z,7.03
2023-05-03T23:30:28.529Z,7.23
2023-05-03T23:32:56.039Z,7.60
2023-05-03T23:35:23.096Z,6.87
2023-05-03T23:37:49.843Z,7.87
2023-05-03T23:40:17.943Z,7.30
2023-05-03T23:42:47.513Z,8.30
2023-05-03T23:45:15.221Z,7.60
2023-05-03T23:47:42.493Z,8.20
2023-05-03T23:50:10.862Z,8.37
2023-05-03T23:52:38.451Z,7.90
2023-05-03T23:55:06.666Z,7.73
2023-05-03T23:57:33.267Z,7.80
